Reno (UNR), Valley Road, Nevada Weather observations

Data are for observation ending at time listed.
 Day   Time    Ave.   Ave.  Ave.  Vector   Max.    Total    Solar   Rl      Baro.   Ave.  
  of    of     Air    Rel.  Wind   Wind    Wind   Precip.   Rad.    in      Pres.   Soil  
Year   Day     Temp.  Hum.  Speed  Dir.    Gust                                     Temp. 
2015   (PST)    F      %     mph   deg.    mph      in.     W/m2    W/m2     mb.     F   
-----------------------------------------------------------------------------------------
 116    1:40   42.4    69    3.7   333      6.7     0.00       0     281    858.1   53.3
 116    1:50   42.1    70    2.9   326      4.5     0.00       0     293    858.1   53.2
 116    2:00   41.9    71    3.0   332      5.0     0.00       0     308    858.2   53.2
 116    2:10   42.2    71    4.1   332      6.0     0.00       0     310    858.3   53.1
 116    2:20   42.1    72    3.9     1      5.8     0.00       0     294    858.2   53.0
 116    2:30   41.8    72    4.4   358      7.2     0.00       0     292    858.2   52.9
 116    2:40   41.7    73    4.8     2      7.8     0.00       0     288    858.3   52.9
 116    2:50   42.0    72    3.1   309      6.5     0.00       0     283    858.4   52.8
 116    3:00   41.7    72    3.3   270      6.2     0.00       0     284    858.5   52.7
 116    3:10   41.7    72    3.2   274      5.0     0.00       0     294    858.7   52.7
 116    3:20   41.5    73    2.9   296      4.2     0.00       0     298    858.8   52.6
 116    3:30   41.3    74    2.3   297      3.7     0.00       0     312    858.9   52.5
 116    3:40   41.3    73    2.8     3      6.1     0.00       0     315    859.0   52.5
 116    3:50   41.7    69    4.7     4      6.9     0.00       0     327    859.0   52.4
 116    4:00   42.1    67    4.4   353      8.2     0.00       0     326    859.0   52.3
 116    4:10   42.3    65    4.7   347      7.3     0.00       0     326    859.1   52.3
 116    4:20   42.2    65    4.7   358      7.2     0.00       0     320    859.2   52.2
 116    4:30   42.0    66    4.4     0      6.2     0.00       0     318    859.2   52.2
 116    4:40   41.7    67    4.9     7      7.4     0.00       0     318    859.2   52.1
 116    4:50   41.5    65    4.2   359      5.7     0.00       0     302    859.2   52.1
 116    5:00   41.2    63    2.3   348      4.9     0.00       1     286    859.2   52.0
 116    5:10   40.9    64    3.1   308      5.7     0.00       3     287    859.5   52.0
 116    5:20   40.7    66    2.9   286      5.1     0.00       7     271    859.5   51.9
 116    5:30   40.3    68    3.2   283      5.4     0.00      16     270    859.7   51.9
 116    5:40   40.5    67    4.0   312      6.3     0.00      21     270    859.9   51.9
 116    5:50   40.2    68    4.9   332      7.5     0.00      28     270    860.0   51.8
 116    6:00   40.1    68    5.1   348      8.2     0.00      44     282    860.1   51.7
 116    6:10   41.0    67    4.9   352      8.1     0.00      84     292    860.2   51.7
 116    6:20   41.4    66    5.4     4      8.4     0.00     139     284    860.2   51.6
 116    6:30   42.9    63    6.4     7     10.4     0.00     220     294    860.3   51.6
 116    6:40   42.5    60    7.7   348     12.2     0.00     111     295    860.5   51.5
 116    6:50   42.3    60    6.4   348      9.6     0.00     123     296    860.6   51.5
 116    7:00   43.3    58    5.2   354      9.8     0.00     213     305    860.6   51.4
 116    7:10   43.8    56    5.9   357      9.0     0.00     153     309    860.5   51.4
 116    7:20   44.2    57    4.5    16      7.9     0.00     163     297    860.4   51.4
 116    7:30   44.4    55    4.4   359      7.5     0.00     200     295    860.5   51.4
 116    7:40   44.6    55    4.5    13      7.9     0.00     237     285    860.5   51.4
 116    7:50   45.9    54    4.8    35      8.6     0.00     370     281    860.7   51.4
 116    8:00   47.4    50    5.0    71     10.3     0.00     539     288    860.6   51.4
 116    8:10   47.0    50    5.5   111      9.7     0.00     428     291    860.6   51.4
 116    8:20   48.0    49    3.4    82      6.5     0.00     616     291    860.5   51.4
 116    8:30   49.3    48    4.1    79      8.6     0.00     684     301    860.5   51.5
 116    8:40   50.3    46    3.6    64      8.3     0.00     660     317    860.5   51.5
 116    8:50   50.6    46    2.2    57      6.1     0.00     565     313    860.6   51.6
 116    9:00   50.7    47    3.3   348      8.5     0.00     727     304    860.4   51.7
 116    9:10   51.3    46    2.9   104      6.1     0.00     789     307    860.4   51.8
 116    9:20   51.5    45    3.2   341      9.4     0.00     807     310    860.3   51.9
 116    9:30   50.9    44    4.5    97     10.3     0.00     816     309    860.2   52.0
 116    9:40   52.0    46    5.6    11     12.0     0.00     848     310    860.3   52.1
 116    9:50   52.5    44    4.8     0     12.0     0.00     897     313    860.4   52.2
 116   10:00   54.3    41    3.4    44      9.5     0.00     887     315    860.4   52.3
 116   10:10   53.4    44    6.8   355     16.2     0.00     859     317    860.4   52.4
 116   10:20   53.1    41    6.8     6     11.3     0.00     901     310    860.3   52.6
 116   10:30   53.2    39    8.0   350     16.2     0.00     925     312    860.3   52.7
 116   10:40   53.1    39    4.7   355     11.9     0.00     936     308    860.2   52.9
 116   10:50   54.5    37    5.5    48     12.9     0.00     947     308    860.2   53.2
 116   11:00   55.1    35    3.8   326     10.5     0.00     955     312    860.2   53.4
 116   11:10   55.0    35    5.2   346     11.8     0.00     965     310    860.0   53.7
 116   11:20   54.5    36    7.5   348     14.4     0.00     974     310    859.7   54.0
 116   11:30   56.0    32    5.0   329     10.1     0.00     977     314    859.6   54.4
 116   11:40   54.9    30    6.7   308     11.8     0.00     980     315    859.7   54.8
 116   11:50   54.9    30    3.6   311     10.5     0.00     995     315    859.7   55.2
 116   12:00   55.8    32    5.9   342     14.3     0.00     948     320    859.5   55.6
 116   12:10   56.5    35    5.8     8     12.7     0.00     948     319    859.5   56.0
 116   12:20   57.7    34    5.1    26     11.0     0.00     965     322    859.6   56.4
 116   12:30   58.0    32    2.7   105      8.0     0.00     962     325    859.6   56.8
 116   12:40   58.8    34    4.5    54     11.2     0.00     940     328    859.4   57.1
 116   12:50   59.1    32    3.6    79      9.5     0.00     988     328    859.3   57.5
 116   13:00   58.8    34    6.5     6     13.1     0.00     974     330    859.3   57.9
 116   13:10   59.3    30    3.3    97      8.6     0.00     911     331    859.2   58.2
 116   13:20   59.5    34    7.0    28     14.3     0.00     885     334    859.1   58.5
 116   13:30   59.8    33    7.0    28     14.0     0.00     834     332    859.1   58.8
 116   13:40   60.3    32    4.2    38     15.5     0.00     796     333    859.0   59.0
 116   13:50   59.9    32    6.0    36     15.2     0.00     825     332    858.9   59.2
 116   14:00   60.7    32    5.2    54     12.4     0.00     878     332    858.9   59.4
 116   14:10   59.7    33    8.9    46     13.1     0.00     839     330    858.8   59.6
 116   14:20   60.3    30    4.3    17     11.6     0.00     785     327    858.8   59.8
 116   14:30   60.1    29    5.1    68     10.1     0.00     796     329    858.7   60.0
 116   14:40   60.6    29    3.7   116     10.9     0.00     770     330    858.6   60.2
 116   14:50   60.3    29    5.5    69     13.6     0.00     737     328    858.7   60.3
 116   15:00   60.8    28    3.8   172      7.9     0.00     713     328    858.5   60.5
 116   15:10   61.4    28    4.7   120     10.7     0.00     693     331    858.5   60.7
 116   15:20   60.5    29    6.8   116     12.4     0.00     667     328    858.5   60.9
 116   15:30   61.4    27    4.3   190      8.0     0.00     641     326    858.5   61.1
 116   15:40   63.1    28    3.4    19      9.9     0.00     590     327    858.4   61.2
 116   15:50   62.5    28    4.5    72      9.4     0.00     581     329    858.4   61.4
 116   16:00   61.3    28    4.0    63      9.2     0.00     558     328    858.5   61.5
 116   16:10   63.1    28    3.1    21      7.4     0.00     499     326    858.5   61.7
 116   16:20   62.4    27    3.8    30      8.0     0.00     454     328    858.6   61.8
 116   16:30   62.2    28    3.6    55      8.5     0.00     427     327    858.6   61.9
 116   16:40   62.7    28    3.8    32      9.7     0.00     383     326    858.6   62.0
 116   16:50   62.0    29    5.4    20     10.4     0.00     370     322    858.5   62.2
 116   17:00   61.0    29    5.0    69      8.8     0.00     341     322    858.6   62.2
 116   17:10   60.8    28    4.5    87      9.7     0.00     307     320    858.7   62.3
 116   17:20   61.2    27    2.6   106      6.3     0.00     263     317    858.8   62.4
 116   17:30   61.7    28    4.7    20      8.0     0.00     253     317    858.9   62.4
 116   17:40   61.3    28    3.9    32      9.4     0.00     194     319    858.8   62.5
 116   17:50   61.4    28    3.5    64      8.2     0.00     176     317    858.9   62.5
 116   18:00   61.5    28    4.3    41      9.2     0.00     150     316    859.0   62.5
 116   18:10   61.5    30    4.9    21      8.7     0.00     119     314    859.2   62.5
 116   18:20   60.6    30    5.4    29      8.6     0.00      78     311    859.3   62.4
 116   18:30   59.3    32    4.2    27      7.3     0.00      31     311    859.5   62.4
 116   18:40   57.5    32    3.8    38      5.8     0.00      13     310    859.7   62.3
 116   18:50   56.8    33    4.1    44      6.7     0.00       6     306    859.9   62.3
 116   19:00   56.3    34    3.7    42      6.2     0.00       2     303    860.1   62.2
 116   19:10   55.9    36    2.8    46      4.2     0.00       0     307    860.3   62.1
 116   19:20   55.3    36    2.6    44      4.1     0.00       0     305    860.6   62.0
 116   19:30   54.8    38    2.8    37      5.0     0.00       0     303    860.8   61.9
 116   19:40   54.0    39    2.2   340      3.9     0.00       0     300    861.0   61.8
 116   19:50   53.3    39    2.4   316      3.4     0.00       0     299    861.2   61.6
 116   20:00   53.2    40    1.9   320      2.4     0.00       0     298    861.4   61.5
 116   20:10   53.1    39    1.6   289      2.3     0.00       0     296    861.6   61.4
 116   20:20   53.0    39    0.9   253      2.0     0.00       0     295    861.7   61.2
 116   20:30   53.1    38    1.0   284      2.0     0.00       0     295    861.9   61.1
 116   20:40   52.3    40    0.9   224      2.4     0.00       0     295    862.0   60.9
 116   20:50   52.0    42    0.6   257      2.0     0.00       0     298    862.2   60.8
 116   21:00   51.1    46    0.6   229      2.8     0.00       0     297    862.3   60.7
 116   21:10   50.5    48    1.4   309      3.8     0.00       0     295    862.4   60.5
 116   21:20   49.9    48    1.4   280      2.5     0.00       0     294    862.5   60.4
 116   21:30   49.3    50    1.9   314      3.5     0.00       0     294    862.6   60.2
 116   21:40   47.8    54    1.0   313      3.1     0.00       0     290    862.7   60.1
 116   21:50   47.4    54    0.1   316      1.5     0.00       0     287    862.9   59.9
 116   22:00   47.0    56    1.5   302      2.9     0.00       0     286    862.9   59.8
 116   22:10   47.2    55    1.6   213      2.6     0.00       0     286    863.0   59.6
 116   22:20   47.1    56    0.5   302      2.3     0.00       0     286    863.1   59.5
 116   22:30   47.0    55    1.2   310      2.3     0.00       0     286    863.3   59.3
 116   22:40   47.0    55    0.2   313      1.6     0.00       0     285    863.4   59.2
 116   22:50   46.2    57    0.0     0      0.0     0.00       0     286    863.5   59.0
 116   23:00   45.5    59    0.1   348      1.4     0.00       0     287    863.5   58.9
 116   23:10   45.0    61    0.5   307      2.0     0.00       0     286    863.6   58.7
 116   23:20   45.1    60    0.6   312      1.8     0.00       0     286    863.6   58.6
 116   23:30   44.5    62    0.2   246      1.9     0.00       0     285    863.7   58.5
 116   23:40   44.2    66    0.8   343      2.2     0.00       0     282    863.8   58.3
 116   23:50   43.2    66    0.3   306      2.3     0.00       0     282    863.9   58.2
 117    0:00   43.7    65    2.7   303      3.7     0.00       0     282    864.0   58.0
 117    0:10   43.2    66    0.5   277      1.9     0.00       0     282    864.0   57.9
 117    0:20   43.0    66    0.8   331      2.8     0.00       0     282    863.9   57.8
 117    0:30   42.8    68    0.6   314      2.2     0.00       0     282    863.9   57.7
 117    0:40   42.7    67    0.7   280      2.2     0.00       0     281    863.8   57.5
 117    0:50   42.9    65    1.9   294      2.7     0.00       0     280    863.8   57.4
 117    1:00   42.7    66    1.0   209      3.5     0.00       0     282    863.8   57.3
 117    1:10   43.3    63    1.6   198      3.0     0.00       0     282    864.0   57.1
 117    1:20   43.1    66    0.8   333      2.4     0.00       0     282    864.0   57.0
 117    1:30   42.3    69    0.7   309      2.3     0.00       0     280    863.9   56.9

Return to Reno (UNR), Nevada graphs page.


Western Regional Climate Center,wrcc@dri.edu